sensor_id;sensor_type;location;lat;lon;timestamp;noise_LAeq;noise_LA_min;noise_LA_max;noise_LA01;noise_LA95
50333;Laerm;36239;48.132;-1.210;2023-07-31T00:02:01;59.46;34.69;85.84;;
50333;Laerm;36239;48.132;-1.210;2023-07-31T00:04:27;58.11;33.90;78.49;;
50333;Laerm;36239;48.132;-1.210;2023-07-31T00:06:53;42.26;33.90;70.81;;
50333;Laerm;36239;48.132;-1.210;2023-07-31T00:09:19;38.08;33.90;49.66;;
50333;Laerm;36239;48.132;-1.210;2023-07-31T00:11:45;41.57;34.69;61.60;;
50333;Laerm;36239;48.132;-1.210;2023-07-31T00:14:11;38.03;34.31;52.24;;
50333;Laerm;36239;48.132;-1.210;2023-07-31T00:16:37;37.87;33.90;50.07;;
50333;Laerm;36239;48.132;-1.210;2023-07-31T00:19:03;38.08;34.69;44.43;;
50333;Laerm;36239;48.132;-1.210;2023-07-31T00:21:29;37.85;33.90;51.98;;
50333;Laerm;36239;48.132;-1.210;2023-07-31T00:23:55;37.72;34.31;51.70;;
50333;Laerm;36239;48.132;-1.210;2023-07-31T00:26:21;38.10;34.69;51.47;;
50333;Laerm;36239;48.132;-1.210;2023-07-31T00:28:47;38.20;33.90;58.09;;
50333;Laerm;36239;48.132;-1.210;2023-07-31T00:31:13;37.98;33.90;47.93;;
50333;Laerm;36239;48.132;-1.210;2023-07-31T00:33:39;42.45;33.90;69.90;;
50333;Laerm;36239;48.132;-1.210;2023-07-31T00:36:05;37.69;33.44;49.53;;
50333;Laerm;36239;48.132;-1.210;2023-07-31T00:38:31;37.81;33.44;51.86;;
50333;Laerm;36239;48.132;-1.210;2023-07-31T00:40:57;38.08;34.31;56.33;;
50333;Laerm;36239;48.132;-1.210;2023-07-31T00:43:24;38.16;33.90;56.89;;
50333;Laerm;36239;48.132;-1.210;2023-07-31T00:45:50;39.23;33.44;61.95;;
50333;Laerm;36239;48.132;-1.210;2023-07-31T00:48:16;37.78;32.93;52.24;;
50333;Laerm;36239;48.132;-1.210;2023-07-31T00:50:42;37.78;33.90;43.09;;
50333;Laerm;36239;48.132;-1.210;2023-07-31T00:53:08;37.93;33.44;41.96;;
50333;Laerm;36239;48.132;-1.210;2023-07-31T00:55:34;39.19;33.90;56.24;;
50333;Laerm;36239;48.132;-1.210;2023-07-31T00:58:00;38.23;34.69;55.77;;
50333;Laerm;36239;48.132;-1.210;2023-07-31T01:00:26;43.32;33.44;73.32;;
50333;Laerm;36239;48.132;-1.210;2023-07-31T01:02:52;42.89;32.93;70.69;;
50333;Laerm;36239;48.132;-1.210;2023-07-31T01:05:19;43.49;33.90;71.59;;
50333;Laerm;36239;48.132;-1.210;2023-07-31T01:07:52;38.62;33.90;63.27;;
50333;Laerm;36239;48.132;-1.210;2023-07-31T01:10:26;38.44;34.31;52.13;;
50333;Laerm;36239;48.132;-1.210;2023-07-31T01:12:53;42.07;34.31;71.41;;
50333;Laerm;36239;48.132;-1.210;2023-07-31T01:15:19;40.37;34.69;67.25;;
50333;Laerm;36239;48.132;-1.210;2023-07-31T01:17:46;40.84;33.90;67.45;;
50333;Laerm;36239;48.132;-1.210;2023-07-31T01:20:20;39.19;33.90;55.83;;
50333;Laerm;36239;48.132;-1.210;2023-07-31T01:25:33;38.17;33.90;51.43;;
50333;Laerm;36239;48.132;-1.210;2023-07-31T01:28:09;38.15;33.90;52.95;;
50333;Laerm;36239;48.132;-1.210;2023-07-31T01:30:41;37.52;33.90;42.41;;
50333;Laerm;36239;48.132;-1.210;2023-07-31T01:33:09;37.79;33.90;42.41;;
50333;Laerm;36239;48.132;-1.210;2023-07-31T01:35:35;38.31;33.44;48.32;;
50333;Laerm;36239;48.132;-1.210;2023-07-31T01:38:02;43.93;32.93;75.26;;
50333;Laerm;36239;48.132;-1.210;2023-07-31T01:40:28;39.63;33.44;60.60;;
50333;Laerm;36239;48.132;-1.210;2023-07-31T01:42:54;38.26;33.90;48.80;;
50333;Laerm;36239;48.132;-1.210;2023-07-31T01:45:20;37.94;33.44;45.80;;
50333;Laerm;36239;48.132;-1.210;2023-07-31T01:47:46;40.91;32.35;66.82;;
50333;Laerm;36239;48.132;-1.210;2023-07-31T01:50:12;44.87;33.90;71.10;;
50333;Laerm;36239;48.132;-1.210;2023-07-31T01:52:38;40.14;33.90;59.01;;
50333;Laerm;36239;48.132;-1.210;2023-07-31T01:55:04;39.23;33.44;57.78;;
50333;Laerm;36239;48.132;-1.210;2023-07-31T01:57:30;38.76;33.44;56.82;;
50333;Laerm;36239;48.132;-1.210;2023-07-31T01:59:56;39.91;33.44;54.93;;
50333;Laerm;36239;48.132;-1.210;2023-07-31T02:02:22;49.07;34.69;76.78;;
50333;Laerm;36239;48.132;-1.210;2023-07-31T02:04:51;38.73;33.90;60.48;;
50333;Laerm;36239;48.132;-1.210;2023-07-31T02:07:17;38.96;34.34;57.46;;
50333;Laerm;36239;48.132;-1.210;2023-07-31T02:09:43;39.01;35.36;49.81;;
50333;Laerm;36239;48.132;-1.210;2023-07-31T02:12:09;42.01;35.36;68.81;;
50333;Laerm;36239;48.132;-1.210;2023-07-31T02:14:35;44.51;34.69;71.66;;
50333;Laerm;36239;48.132;-1.210;2023-07-31T02:17:01;39.00;33.44;60.61;;
50333;Laerm;36239;48.132;-1.210;2023-07-31T02:19:27;39.38;34.31;59.06;;
50333;Laerm;36239;48.132;-1.210;2023-07-31T02:21:53;38.13;32.93;50.76;;
50333;Laerm;36239;48.132;-1.210;2023-07-31T02:24:19;38.42;34.31;45.83;;
50333;Laerm;36239;48.132;-1.210;2023-07-31T02:26:45;38.36;33.90;52.31;;
50333;Laerm;36239;48.132;-1.210;2023-07-31T02:29:11;39.02;34.69;60.73;;
50333;Laerm;36239;48.132;-1.210;2023-07-31T02:31:37;42.43;35.66;66.46;;
50333;Laerm;36239;48.132;-1.210;2023-07-31T02:34:03;39.20;35.04;50.56;;
50333;Laerm;36239;48.132;-1.210;2023-07-31T02:36:29;47.22;34.31;75.76;;
50333;Laerm;36239;48.132;-1.210;2023-07-31T02:38:55;42.39;34.31;52.62;;
50333;Laerm;36239;48.132;-1.210;2023-07-31T02:41:21;40.78;34.31;60.35;;
50333;Laerm;36239;48.132;-1.210;2023-07-31T02:43:47;38.25;33.44;56.43;;
50333;Laerm;36239;48.132;-1.210;2023-07-31T02:46:13;38.40;34.69;46.89;;
50333;Laerm;36239;48.132;-1.210;2023-07-31T02:48:39;38.41;34.69;47.90;;
50333;Laerm;36239;48.132;-1.210;2023-07-31T02:51:05;40.20;33.90;62.96;;
50333;Laerm;36239;48.132;-1.210;2023-07-31T02:53:31;38.93;33.90;54.44;;
50333;Laerm;36239;48.132;-1.210;2023-07-31T02:55:57;38.54;33.44;52.51;;
50333;Laerm;36239;48.132;-1.210;2023-07-31T02:58:23;40.39;33.90;63.22;;
50333;Laerm;36239;48.132;-1.210;2023-07-31T03:00:49;37.77;33.44;47.77;;
50333;Laerm;36239;48.132;-1.210;2023-07-31T03:03:15;40.18;33.90;60.70;;
50333;Laerm;36239;48.132;-1.210;2023-07-31T03:05:41;39.33;33.90;55.70;;
50333;Laerm;36239;48.132;-1.210;2023-07-31T03:08:07;47.63;34.31;77.13;;
50333;Laerm;36239;48.132;-1.210;2023-07-31T03:10:33;39.55;35.04;56.51;;
50333;Laerm;36239;48.132;-1.210;2023-07-31T03:12:59;38.79;35.04;42.47;;
50333;Laerm;36239;48.132;-1.210;2023-07-31T03:15:25;38.43;33.90;52.67;;
50333;Laerm;36239;48.132;-1.210;2023-07-31T03:17:51;38.53;34.31;48.67;;
50333;Laerm;36239;48.132;-1.210;2023-07-31T03:20:17;38.19;33.90;41.68;;
50333;Laerm;36239;48.132;-1.210;2023-07-31T03:22:43;38.75;35.04;48.02;;
50333;Laerm;36239;48.132;-1.210;2023-07-31T03:25:09;38.61;34.31;54.82;;
50333;Laerm;36239;48.132;-1.210;2023-07-31T03:27:36;38.13;34.31;41.53;;
50333;Laerm;36239;48.132;-1.210;2023-07-31T03:30:02;38.34;33.44;54.32;;
50333;Laerm;36239;48.132;-1.210;2023-07-31T03:32:28;38.12;34.31;48.13;;
50333;Laerm;36239;48.132;-1.210;2023-07-31T03:34:54;40.89;34.31;68.37;;
50333;Laerm;36239;48.132;-1.210;2023-07-31T03:37:20;39.03;33.44;56.65;;
50333;Laerm;36239;48.132;-1.210;2023-07-31T03:39:46;38.28;34.69;46.10;;
50333;Laerm;36239;48.132;-1.210;2023-07-31T03:42:12;39.58;32.93;52.43;;
50333;Laerm;36239;48.132;-1.210;2023-07-31T03:44:38;42.54;35.66;65.86;;
50333;Laerm;36239;48.132;-1.210;2023-07-31T03:47:04;40.32;34.31;67.84;;
50333;Laerm;36239;48.132;-1.210;2023-07-31T03:49:31;38.12;33.44;50.11;;
50333;Laerm;36239;48.132;-1.210;2023-07-31T03:51:57;38.39;33.90;43.19;;
50333;Laerm;36239;48.132;-1.210;2023-07-31T03:54:23;39.26;35.36;55.08;;
50333;Laerm;36239;48.132;-1.210;2023-07-31T03:56:49;39.61;35.04;59.97;;
50333;Laerm;36239;48.132;-1.210;2023-07-31T03:59:15;38.54;33.90;44.20;;
50333;Laerm;36239;48.132;-1.210;2023-07-31T04:01:41;38.51;33.90;45.33;;
50333;Laerm;36239;48.132;-1.210;2023-07-31T04:04:07;39.98;33.90;58.32;;
50333;Laerm;36239;48.132;-1.210;2023-07-31T04:06:33;39.06;34.31;51.42;;
50333;Laerm;36239;48.132;-1.210;2023-07-31T04:08:59;38.55;34.31;47.53;;
50333;Laerm;36239;48.132;-1.210;2023-07-31T04:11:25;47.47;35.04;80.45;;
50333;Laerm;36239;48.132;-1.210;2023-07-31T04:13:51;41.47;35.31;53.96;;
50333;Laerm;36239;48.132;-1.210;2023-07-31T04:16:17;40.75;35.94;48.46;;
50333;Laerm;36239;48.132;-1.210;2023-07-31T04:18:43;41.28;35.36;64.10;;
50333;Laerm;36239;48.132;-1.210;2023-07-31T04:21:09;39.99;35.04;60.53;;
50333;Laerm;36239;48.132;-1.210;2023-07-31T04:23:35;38.88;35.04;43.81;;
50333;Laerm;36239;48.132;-1.210;2023-07-31T04:26:01;41.82;34.69;59.76;;
50333;Laerm;36239;48.132;-1.210;2023-07-31T04:28:27;39.75;35.94;54.60;;
50333;Laerm;36239;48.132;-1.210;2023-07-31T04:30:53;39.55;35.94;45.54;;
50333;Laerm;36239;48.132;-1.210;2023-07-31T04:33:19;40.19;35.36;57.53;;
50333;Laerm;36239;48.132;-1.210;2023-07-31T04:35:51;39.55;35.36;57.62;;
50333;Laerm;36239;48.132;-1.210;2023-07-31T04:38:18;41.25;35.66;61.34;;
50333;Laerm;36239;48.132;-1.210;2023-07-31T04:40:45;39.27;35.36;46.22;;
50333;Laerm;36239;48.132;-1.210;2023-07-31T04:43:11;40.56;36.20;52.66;;
50333;Laerm;36239;48.132;-1.210;2023-07-31T04:45:37;40.26;36.20;53.22;;
50333;Laerm;36239;48.132;-1.210;2023-07-31T04:48:03;47.10;34.69;64.05;;
50333;Laerm;36239;48.132;-1.210;2023-07-31T04:50:29;40.91;35.94;59.68;;
50333;Laerm;36239;48.132;-1.210;2023-07-31T04:52:56;40.57;35.94;57.59;;
50333;Laerm;36239;48.132;-1.210;2023-07-31T04:55:22;39.66;35.66;45.33;;
50333;Laerm;36239;48.132;-1.210;2023-07-31T04:57:48;41.25;35.36;59.87;;
50333;Laerm;36239;48.132;-1.210;2023-07-31T05:00:14;41.44;35.36;54.71;;
50333;Laerm;36239;48.132;-1.210;2023-07-31T05:02:40;39.72;35.04;48.18;;
50333;Laerm;36239;48.132;-1.210;2023-07-31T05:05:06;39.45;34.31;43.94;;
50333;Laerm;36239;48.132;-1.210;2023-07-31T05:07:32;40.61;35.66;58.21;;
50333;Laerm;36239;48.132;-1.210;2023-07-31T05:09:58;42.69;35.94;72.09;;
50333;Laerm;36239;48.132;-1.210;2023-07-31T05:12:24;44.48;36.45;67.47;;
50333;Laerm;36239;48.132;-1.210;2023-07-31T05:14:50;46.39;39.21;56.54;;
50333;Laerm;36239;48.132;-1.210;2023-07-31T05:17:16;62.68;38.05;78.87;;
50333;Laerm;36239;48.132;-1.210;2023-07-31T05:19:42;63.56;37.88;85.73;;
50333;Laerm;36239;48.132;-1.210;2023-07-31T05:22:08;41.07;37.12;52.66;;
50333;Laerm;36239;48.132;-1.210;2023-07-31T05:24:34;40.48;37.12;51.25;;
50333;Laerm;36239;48.132;-1.210;2023-07-31T05:27:00;40.29;36.20;51.53;;
50333;Laerm;36239;48.132;-1.210;2023-07-31T05:29:26;40.50;35.94;49.12;;
50333;Laerm;36239;48.132;-1.210;2023-07-31T05:31:52;40.99;36.20;49.55;;
50333;Laerm;36239;48.132;-1.210;2023-07-31T05:34:18;40.32;35.36;50.07;;
50333;Laerm;36239;48.132;-1.210;2023-07-31T05:36:44;41.25;36.20;64.17;;
50333;Laerm;36239;48.132;-1.210;2023-07-31T05:39:10;40.29;36.69;48.07;;
50333;Laerm;36239;48.132;-1.210;2023-07-31T05:41:36;48.56;36.69;65.58;;
50333;Laerm;36239;48.132;-1.210;2023-07-31T05:44:02;40.61;36.69;57.30;;
50333;Laerm;36239;48.132;-1.210;2023-07-31T05:46:28;44.56;37.52;72.74;;
50333;Laerm;36239;48.132;-1.210;2023-07-31T05:48:54;41.34;36.91;59.36;;
50333;Laerm;36239;48.132;-1.210;2023-07-31T05:51:20;45.25;37.32;77.77;;
50333;Laerm;36239;48.132;-1.210;2023-07-31T05:53:46;42.15;37.88;59.57;;
50333;Laerm;36239;48.132;-1.210;2023-07-31T05:56:12;40.05;36.91;51.12;;
50333;Laerm;36239;48.132;-1.210;2023-07-31T05:58:38;43.89;37.12;69.56;;
50333;Laerm;36239;48.132;-1.210;2023-07-31T06:01:04;39.95;36.20;44.80;;
50333;Laerm;36239;48.132;-1.210;2023-07-31T06:03:30;43.62;35.04;61.85;;
50333;Laerm;36239;48.132;-1.210;2023-07-31T06:05:56;42.66;35.66;57.58;;
50333;Laerm;36239;48.132;-1.210;2023-07-31T06:08:22;45.46;37.12;67.66;;
50333;Laerm;36239;48.132;-1.210;2023-07-31T06:10:48;43.07;36.91;61.35;;
50333;Laerm;36239;48.132;-1.210;2023-07-31T06:13:14;41.10;36.91;62.83;;
50333;Laerm;36239;48.132;-1.210;2023-07-31T06:15:40;42.76;37.12;67.83;;
50333;Laerm;36239;48.132;-1.210;2023-07-31T06:18:06;40.74;37.32;49.83;;
50333;Laerm;36239;48.132;-1.210;2023-07-31T06:20:33;40.99;37.32;56.13;;
50333;Laerm;36239;48.132;-1.210;2023-07-31T06:23:00;42.39;37.52;65.62;;
50333;Laerm;36239;48.132;-1.210;2023-07-31T06:25:26;40.64;36.69;59.00;;
50333;Laerm;36239;48.132;-1.210;2023-07-31T06:27:52;43.77;37.32;66.76;;
50333;Laerm;36239;48.132;-1.210;2023-07-31T06:30:17;45.49;36.91;65.52;;
50333;Laerm;36239;48.132;-1.210;2023-07-31T06:32:43;48.39;36.91;69.24;;
50333;Laerm;36239;48.132;-1.210;2023-07-31T06:35:10;43.84;37.12;67.42;;
50333;Laerm;36239;48.132;-1.210;2023-07-31T06:37:36;45.15;36.69;68.14;;
50333;Laerm;36239;48.132;-1.210;2023-07-31T06:40:02;47.25;37.52;72.21;;
50333;Laerm;36239;48.132;-1.210;2023-07-31T06:42:28;44.43;37.12;68.12;;
50333;Laerm;36239;48.132;-1.210;2023-07-31T06:44:54;41.55;36.91;54.14;;
50333;Laerm;36239;48.132;-1.210;2023-07-31T06:47:20;41.78;37.52;59.32;;
50333;Laerm;36239;48.132;-1.210;2023-07-31T06:49:46;43.55;37.32;68.72;;
50333;Laerm;36239;48.132;-1.210;2023-07-31T06:52:12;39.89;37.12;50.05;;
50333;Laerm;36239;48.132;-1.210;2023-07-31T06:54:38;41.67;36.91;64.96;;
50333;Laerm;36239;48.132;-1.210;2023-07-31T06:57:04;41.35;37.52;58.67;;
50333;Laerm;36239;48.132;-1.210;2023-07-31T06:59:30;40.87;37.70;57.11;;
50333;Laerm;36239;48.132;-1.210;2023-07-31T07:01:56;41.94;37.52;63.80;;
50333;Laerm;36239;48.132;-1.210;2023-07-31T07:04:22;41.26;36.20;67.34;;
50333;Laerm;36239;48.132;-1.210;2023-07-31T07:06:48;41.08;36.69;54.89;;
50333;Laerm;36239;48.132;-1.210;2023-07-31T07:09:14;54.55;37.70;80.98;;
50333;Laerm;36239;48.132;-1.210;2023-07-31T07:11:40;45.87;38.21;67.33;;
50333;Laerm;36239;48.132;-1.210;2023-07-31T07:14:06;41.61;37.52;60.35;;
50333;Laerm;36239;48.132;-1.210;2023-07-31T07:16:32;41.98;37.12;58.67;;
50333;Laerm;36239;48.132;-1.210;2023-07-31T07:18:58;42.28;38.21;55.50;;
50333;Laerm;36239;48.132;-1.210;2023-07-31T07:21:24;43.35;37.32;64.25;;
50333;Laerm;36239;48.132;-1.210;2023-07-31T07:23:50;52.87;37.32;79.80;;
50333;Laerm;36239;48.132;-1.210;2023-07-31T07:26:16;42.46;37.12;60.13;;
50333;Laerm;36239;48.132;-1.210;2023-07-31T07:28:42;50.85;37.70;78.47;;
50333;Laerm;36239;48.132;-1.210;2023-07-31T07:31:08;40.46;37.12;51.13;;
50333;Laerm;36239;48.132;-1.210;2023-07-31T07:33:34;50.23;37.70;68.49;;
50333;Laerm;36239;48.132;-1.210;2023-07-31T07:36:00;42.82;38.37;58.33;;
50333;Laerm;36239;48.132;-1.210;2023-07-31T07:38:26;43.42;38.52;59.77;;
50333;Laerm;36239;48.132;-1.210;2023-07-31T07:40:52;44.19;37.70;67.52;;
50333;Laerm;36239;48.132;-1.210;2023-07-31T07:43:19;42.85;37.88;58.88;;
50333;Laerm;36239;48.132;-1.210;2023-07-31T07:45:45;42.58;37.88;63.55;;
50333;Laerm;36239;48.132;-1.210;2023-07-31T07:48:11;47.12;37.53;70.57;;
50333;Laerm;36239;48.132;-1.210;2023-07-31T07:50:38;41.42;38.05;55.28;;
50333;Laerm;36239;48.132;-1.210;2023-07-31T07:53:04;47.59;37.88;73.96;;
50333;Laerm;36239;48.132;-1.210;2023-07-31T07:55:30;52.51;38.95;76.21;;
50333;Laerm;36239;48.132;-1.210;2023-07-31T07:57:56;43.78;39.34;63.39;;
50333;Laerm;36239;48.132;-1.210;2023-07-31T08:00:22;40.39;37.70;47.68;;
50333;Laerm;36239;48.132;-1.210;2023-07-31T08:02:48;41.53;37.52;54.22;;
50333;Laerm;36239;48.132;-1.210;2023-07-31T08:05:14;42.32;37.88;61.27;;
50333;Laerm;36239;48.132;-1.210;2023-07-31T08:07:40;45.85;37.12;72.54;;
50333;Laerm;36239;48.132;-1.210;2023-07-31T08:10:06;41.84;37.88;58.57;;
50333;Laerm;36239;48.132;-1.210;2023-07-31T08:12:32;41.74;38.52;56.25;;
50333;Laerm;36239;48.132;-1.210;2023-07-31T08:14:58;46.47;37.88;64.38;;
50333;Laerm;36239;48.132;-1.210;2023-07-31T08:17:25;48.25;41.82;64.49;;
50333;Laerm;36239;48.132;-1.210;2023-07-31T08:19:51;47.85;39.08;58.23;;
50333;Laerm;36239;48.132;-1.210;2023-07-31T08:22:17;47.35;42.22;55.14;;
50333;Laerm;36239;48.132;-1.210;2023-07-31T08:24:43;47.37;42.76;56.80;;
50333;Laerm;36239;48.132;-1.210;2023-07-31T08:27:09;50.16;39.08;73.76;;
50333;Laerm;36239;48.132;-1.210;2023-07-31T08:29:35;50.46;39.46;75.70;;
50333;Laerm;36239;48.132;-1.210;2023-07-31T08:32:01;48.91;43.54;57.65;;
50333;Laerm;36239;48.132;-1.210;2023-07-31T08:34:27;47.46;42.71;54.84;;
50333;Laerm;36239;48.132;-1.210;2023-07-31T08:36:53;46.57;38.67;78.01;;
50333;Laerm;36239;48.132;-1.210;2023-07-31T08:39:19;54.67;39.34;65.79;;
50333;Laerm;36239;48.132;-1.210;2023-07-31T08:41:45;60.36;52.34;66.15;;
50333;Laerm;36239;48.132;-1.210;2023-07-31T08:44:11;60.57;55.77;68.22;;
50333;Laerm;36239;48.132;-1.210;2023-07-31T08:46:38;52.46;38.21;70.37;;
50333;Laerm;36239;48.132;-1.210;2023-07-31T08:49:04;55.40;38.81;79.68;;
50333;Laerm;36239;48.132;-1.210;2023-07-31T08:51:33;42.39;38.81;56.76;;
50333;Laerm;36239;48.132;-1.210;2023-07-31T08:53:59;43.79;39.34;58.92;;
50333;Laerm;36239;48.132;-1.210;2023-07-31T08:56:25;45.29;38.81;62.89;;
50333;Laerm;36239;48.132;-1.210;2023-07-31T08:58:51;43.29;38.95;67.39;;
50333;Laerm;36239;48.132;-1.210;2023-07-31T09:01:18;47.36;40.33;76.03;;
50333;Laerm;36239;48.132;-1.210;2023-07-31T09:03:44;47.74;39.21;68.10;;
50333;Laerm;36239;48.132;-1.210;2023-07-31T09:06:11;60.17;38.37;91.27;;
50333;Laerm;36239;48.132;-1.210;2023-07-31T09:08:38;42.24;38.21;70.39;;
50333;Laerm;36239;48.132;-1.210;2023-07-31T09:11:07;45.85;38.05;72.61;;
50333;Laerm;36239;48.132;-1.210;2023-07-31T09:13:33;46.89;38.05;73.53;;
50333;Laerm;36239;48.132;-1.210;2023-07-31T09:15:59;45.85;38.67;66.69;;
50333;Laerm;36239;48.132;-1.210;2023-07-31T09:18:25;54.40;39.08;81.94;;
50333;Laerm;36239;48.132;-1.210;2023-07-31T09:21:09;51.96;38.95;75.53;;
50333;Laerm;36239;48.132;-1.210;2023-07-31T09:23:42;51.25;39.81;79.45;;
50333;Laerm;36239;48.132;-1.210;2023-07-31T09:26:08;47.33;38.95;67.87;;
50333;Laerm;36239;48.132;-1.210;2023-07-31T09:28:34;52.03;40.33;77.06;;
50333;Laerm;36239;48.132;-1.210;2023-07-31T09:31:00;50.40;39.34;74.60;;
50333;Laerm;36239;48.132;-1.210;2023-07-31T09:33:26;55.31;40.71;81.25;;
50333;Laerm;36239;48.132;-1.210;2023-07-31T09:35:52;49.63;39.58;71.66;;
50333;Laerm;36239;48.132;-1.210;2023-07-31T09:38:18;50.17;39.46;80.69;;
50333;Laerm;36239;48.132;-1.210;2023-07-31T09:40:45;47.83;39.70;74.78;;
50333;Laerm;36239;48.132;-1.210;2023-07-31T09:43:12;46.29;39.70;62.25;;
50333;Laerm;36239;48.132;-1.210;2023-07-31T09:45:39;57.46;39.46;87.07;;
50333;Laerm;36239;48.132;-1.210;2023-07-31T09:48:09;60.78;41.82;89.62;;
50333;Laerm;36239;48.132;-1.210;2023-07-31T09:50:36;55.19;42.65;83.05;;
50333;Laerm;36239;48.132;-1.210;2023-07-31T09:53:02;46.65;40.33;71.22;;
50333;Laerm;36239;48.132;-1.210;2023-07-31T09:55:28;55.81;40.23;84.58;;
50333;Laerm;36239;48.132;-1.210;2023-07-31T09:57:55;56.41;42.53;79.76;;
50333;Laerm;36239;48.132;-1.210;2023-07-31T10:00:22;53.99;41.82;81.40;;
50333;Laerm;36239;48.132;-1.210;2023-07-31T10:02:50;55.71;40.03;81.40;;
50333;Laerm;36239;48.132;-1.210;2023-07-31T10:05:16;47.33;39.58;70.47;;
50333;Laerm;36239;48.132;-1.210;2023-07-31T10:07:45;48.53;39.89;72.08;;
50333;Laerm;36239;48.132;-1.210;2023-07-31T10:10:16;53.87;40.53;78.57;;
50333;Laerm;36239;48.132;-1.210;2023-07-31T10:12:45;57.51;39.58;86.47;;
50333;Laerm;36239;48.132;-1.210;2023-07-31T10:15:11;54.43;40.71;84.33;;
50333;Laerm;36239;48.132;-1.210;2023-07-31T10:17:38;58.40;40.43;87.03;;
50333;Laerm;36239;48.132;-1.210;2023-07-31T10:20:04;58.57;39.92;85.11;;
50333;Laerm;36239;48.132;-1.210;2023-07-31T10:22:32;50.33;40.13;75.62;;
50333;Laerm;36239;48.132;-1.210;2023-07-31T10:24:59;56.13;39.58;84.70;;
50333;Laerm;36239;48.132;-1.210;2023-07-31T10:27:25;60.45;42.09;86.34;;
50333;Laerm;36239;48.132;-1.210;2023-07-31T10:29:51;56.89;42.03;84.16;;
50333;Laerm;36239;48.132;-1.210;2023-07-31T10:32:19;57.88;43.68;82.77;;
50333;Laerm;36239;48.132;-1.210;2023-07-31T10:34:46;51.75;41.96;79.53;;
50333;Laerm;36239;48.132;-1.210;2023-07-31T10:37:19;51.20;40.13;78.29;;
50333;Laerm;36239;48.132;-1.210;2023-07-31T10:39:46;49.43;40.98;76.51;;
50333;Laerm;36239;48.132;-1.210;2023-07-31T10:42:21;49.76;40.53;83.94;;
50333;Laerm;36239;48.132;-1.210;2023-07-31T10:44:54;55.18;41.14;81.47;;
50333;Laerm;36239;48.132;-1.210;2023-07-31T10:47:20;54.86;39.34;77.94;;
50333;Laerm;36239;48.132;-1.210;2023-07-31T10:49:46;46.60;39.21;74.31;;
50333;Laerm;36239;48.132;-1.210;2023-07-31T10:52:13;48.48;39.34;74.72;;
50333;Laerm;36239;48.132;-1.210;2023-07-31T10:54:39;52.99;39.08;78.00;;
50333;Laerm;36239;48.132;-1.210;2023-07-31T10:57:18;61.13;40.13;90.38;;
50333;Laerm;36239;48.132;-1.210;2023-07-31T10:59:44;52.56;39.78;80.71;;
50333;Laerm;36239;48.132;-1.210;2023-07-31T11:02:23;45.22;38.67;69.29;;
50333;Laerm;36239;48.132;-1.210;2023-07-31T11:05:05;54.05;38.81;80.35;;
50333;Laerm;36239;48.132;-1.210;2023-07-31T11:07:47;57.94;39.23;91.28;;
50333;Laerm;36239;48.132;-1.210;2023-07-31T11:10:15;54.62;48.57;73.68;;
50333;Laerm;36239;48.132;-1.210;2023-07-31T11:12:41;56.15;43.99;80.23;;
50333;Laerm;36239;48.132;-1.210;2023-07-31T11:15:08;52.13;45.36;67.88;;
50333;Laerm;36239;48.132;-1.210;2023-07-31T11:17:37;52.06;39.58;67.66;;
50333;Laerm;36239;48.132;-1.210;2023-07-31T11:20:04;48.32;38.95;78.50;;
50333;Laerm;36239;48.132;-1.210;2023-07-31T11:22:30;49.83;38.95;74.56;;
50333;Laerm;36239;48.132;-1.210;2023-07-31T11:24:56;55.06;40.13;79.32;;
50333;Laerm;36239;48.132;-1.210;2023-07-31T11:27:22;51.56;39.08;76.57;;
50333;Laerm;36239;48.132;-1.210;2023-07-31T11:29:50;43.17;39.58;62.16;;
50333;Laerm;36239;48.132;-1.210;2023-07-31T11:32:16;54.91;42.35;83.16;;
50333;Laerm;36239;48.132;-1.210;2023-07-31T11:34:53;56.86;40.71;82.40;;
50333;Laerm;36239;48.132;-1.210;2023-07-31T11:37:19;44.60;38.52;65.04;;
50333;Laerm;36239;48.132;-1.210;2023-07-31T11:40:00;46.64;38.02;67.11;;
50333;Laerm;36239;48.132;-1.210;2023-07-31T11:42:27;57.80;39.68;89.58;;
50333;Laerm;36239;48.132;-1.210;2023-07-31T11:44:52;48.57;40.03;75.69;;
50333;Laerm;36239;48.132;-1.210;2023-07-31T11:47:18;55.13;40.43;80.59;;
50333;Laerm;36239;48.132;-1.210;2023-07-31T11:49:45;59.42;40.03;86.32;;
50333;Laerm;36239;48.132;-1.210;2023-07-31T11:52:11;49.43;39.21;78.31;;
50333;Laerm;36239;48.132;-1.210;2023-07-31T11:54:38;55.92;39.92;81.38;;
50333;Laerm;36239;48.132;-1.210;2023-07-31T11:57:04;50.30;40.33;79.82;;
50333;Laerm;36239;48.132;-1.210;2023-07-31T11:59:30;66.22;41.68;91.71;;
50333;Laerm;36239;48.132;-1.210;2023-07-31T12:01:57;49.26;40.43;75.99;;
50333;Laerm;36239;48.132;-1.210;2023-07-31T12:04:23;50.54;40.98;78.00;;
50333;Laerm;36239;48.132;-1.210;2023-07-31T12:06:49;57.16;42.59;85.78;;
50333;Laerm;36239;48.132;-1.210;2023-07-31T12:09:18;59.45;41.06;91.45;;
50333;Laerm;36239;48.132;-1.210;2023-07-31T12:11:44;52.86;40.43;82.49;;
50333;Laerm;36239;48.132;-1.210;2023-07-31T12:14:21;48.06;41.53;69.35;;
50333;Laerm;36239;48.132;-1.210;2023-07-31T12:16:48;53.16;40.53;81.53;;
50333;Laerm;36239;48.132;-1.210;2023-07-31T12:19:18;50.98;39.99;77.34;;
50333;Laerm;36239;48.132;-1.210;2023-07-31T12:21:45;50.53;40.33;77.45;;
50333;Laerm;36239;48.132;-1.210;2023-07-31T12:24:11;51.29;40.71;78.59;;
50333;Laerm;36239;48.132;-1.210;2023-07-31T12:26:37;55.45;41.61;79.21;;
50333;Laerm;36239;48.132;-1.210;2023-07-31T12:29:05;47.83;39.58;69.39;;
50333;Laerm;36239;48.132;-1.210;2023-07-31T12:31:33;48.25;40.03;73.74;;
50333;Laerm;36239;48.132;-1.210;2023-07-31T12:33:59;46.24;38.87;75.37;;
50333;Laerm;36239;48.132;-1.210;2023-07-31T12:36:26;47.46;39.21;69.35;;
50333;Laerm;36239;48.132;-1.210;2023-07-31T12:38:54;52.67;39.08;77.80;;
50333;Laerm;36239;48.132;-1.210;2023-07-31T12:41:21;49.04;39.34;71.80;;
50333;Laerm;36239;48.132;-1.210;2023-07-31T12:43:47;48.64;39.92;77.27;;
50333;Laerm;36239;48.132;-1.210;2023-07-31T12:46:13;45.36;39.34;62.59;;
50333;Laerm;36239;48.132;-1.210;2023-07-31T12:48:40;54.75;39.58;83.18;;
50333;Laerm;36239;48.132;-1.210;2023-07-31T12:51:06;50.51;38.81;80.94;;
50333;Laerm;36239;48.132;-1.210;2023-07-31T12:53:33;55.02;39.08;84.09;;
50333;Laerm;36239;48.132;-1.210;2023-07-31T12:55:59;58.72;39.81;88.84;;
50333;Laerm;36239;48.132;-1.210;2023-07-31T12:58:25;48.78;38.52;74.30;;
50333;Laerm;36239;48.132;-1.210;2023-07-31T13:00:51;65.48;40.23;92.70;;
50333;Laerm;36239;48.132;-1.210;2023-07-31T13:03:17;55.59;40.13;83.83;;
50333;Laerm;36239;48.132;-1.210;2023-07-31T13:05:43;57.75;40.03;83.86;;
50333;Laerm;36239;48.132;-1.210;2023-07-31T13:08:09;64.02;42.47;92.76;;
50333;Laerm;36239;48.132;-1.210;2023-07-31T13:10:35;50.08;40.13;73.44;;
50333;Laerm;36239;48.132;-1.210;2023-07-31T13:13:01;55.00;40.89;84.78;;
50333;Laerm;36239;48.132;-1.210;2023-07-31T13:15:27;70.27;40.98;98.08;;
50333;Laerm;36239;48.132;-1.210;2023-07-31T13:17:53;58.40;40.23;84.99;;
50333;Laerm;36239;48.132;-1.210;2023-07-31T13:20:19;43.64;39.70;65.04;;
50333;Laerm;36239;48.132;-1.210;2023-07-31T13:22:45;67.26;40.03;97.12;;
50333;Laerm;36239;48.132;-1.210;2023-07-31T13:25:11;66.44;42.35;94.01;;
50333;Laerm;36239;48.132;-1.210;2023-07-31T13:27:37;58.27;46.38;81.59;;
50333;Laerm;36239;48.132;-1.210;2023-07-31T13:30:03;67.90;43.44;96.84;;
50333;Laerm;36239;48.132;-1.210;2023-07-31T13:32:29;59.89;41.61;86.54;;